Terminal Aerodrome Forecast
Issued by NWS Sterling, VA

Current Version | Previous Version | Graphics & Text | Print | Product List | Glossary On
Versions: 1 2 3 4 5 6 7 8 9 10 11 12 13 14 15 16 17 18 19 20 21 22 23
561
FTUS41 KLWX 122122 AAB
TAFDCA
TAF AMD
KDCA 122122Z 1221/1324 30017G30KT P6SM BKN050 OVC090
     FM122200 31019G30KT P6SM FEW060 SCT090
     FM131100 28015G22KT P6SM FEW060 FEW200
     FM132300 23007KT P6SM FEW070 SCT200=

USA.gov is the U.S. government's official web portal to all federal, state and local government web resources and services.